Aeroporto :
LOGIN :

Iscrizione | Disclaimer

   EN    FR    IT 

 










Sommario :    VFR   VFR Marginale   IFR   IFR Intensivo   IFR Molto Intensivo
Visibilità : 
Base nubi : 
>= 8 km
>= 3000ft
5 / 8 km
1000 / 3000 ft
1500m / 5 km
500 / 1000 ft
800 / 1500m
200 / 500 ft
< 800m
< 200 ft
Simboli :   Temporali  Nebbia  Neve Forte  Precipitazioni Forti  Vento > 20 kt
SIGMETs :   Varie  Temporali  Ghiacco  Turbolenza  Onda orograficha  Ceneri Vulcaniche







- Altitudine del aeroporto : 348 ft
- Codice IATA : STN
- Carte del aeroporto


EGSS - London Stansted

ULTIMO METAR :
  • 211850Z AUTO 09008KT 9999 NCD 17/10 Q1009

METARs OBSOLETI :
  • 211820Z AUTO 10008KT 9999 NCD 17/09 Q1010
  • 211750Z AUTO 12009KT 9999 NCD 18/09 Q1010
  • 211720Z AUTO 11010KT 9999 NCD 19/09 Q1010
  • 211650Z AUTO 10010KT 9999 NCD 19/10 Q1010
  • 211620Z AUTO 10011G21KT 340V120 9999 NCD 19/10 Q1010

TAF TAF EGSS
Valido dal 21 a 18 ore il 23 a 00 ore UTC


211708Z 2118/2224 12013KT CAVOK
TEMPO 2202/2207 7000 SHRA
PROB30
TEMPO 2202/2207 4000 +SHRA TSRA BKN040CB
BECMG 2208/2211 BKN025
BECMG 2210/2213 19010KT
TEMPO 2210/2215 6000 SHRA RA
PROB40
TEMPO 2210/2214 15015G25KT 3000 +SHRA BKN010 BKN020CB
BECMG 2217/2220 CAVOK
ATIS : +44 1279 669 325
Nessun NOTAM noto per questo aeroporto.



MetMap, La meteo Aeronautica in un colpo d'occhio ! - Copyright ORBIFLY Dicembre 2007 - Disclaimer

ORBIFLY MET'MAP TEAM :

Programmazione e sviluppo : Alexandra Zaïnal
Concezione e sviluppo : Baudouin d'Aumeries
Co-Programmazione e sviluppo : Marc-Olivier Méhu
Supporto tecnico e logistico : Manuel Goepfert
Aiuto per la traduzione : Arnaldo La Scala

Contatto : metmap@orbifly.com




FONTI E CREDITI :

   NOAA